| time (UTC) | temp F | wind direction | speed MPH | gust MPH | rain 1hr in | rain 24hr in | rain mn in | humidity % | barometer mb |
| 20260506181023 | 58 | 5 | 3.0 | 4.0 | 0.00 | 0.01 | 0.01 | 88 | 1041.2 |
| 20260506180940 | 58 | 24 | 6.0 | 9.0 | 0.00 | 0.01 | 0.01 | 88 | 1041.3 |
| 20260506180024 | 58 | 330 | 2.0 | 4.0 | 0.00 | 0.01 | 0.01 | 88 | 1041.8 |
| 20260506175024 | 58 | 333 | 2.0 | 4.0 | 0.00 | 0.01 | 0.01 | 89 | 1041.2 |
| 20260506174023 | 58 | 75 | 1.0 | 3.0 | 0.00 | 0.01 | 0.01 | 89 | 1041.9 |
| 20260506172023 | 57 | 339 | 1.0 | 3.0 | 0.00 | 0.01 | 0.01 | 91 | 1042.0 |
| 20260506171023 | 57 | 2 | 3.0 | 5.0 | 0.00 | 0.01 | 0.01 | 93 | 1042.3 |
| 20260506170040 | 57 | 354 | 2.0 | 4.0 | 0.00 | 0.01 | 0.01 | 93 | 1042.6 |
| 20260506165122 | 57 | 322 | 2.0 | 6.0 | 0.00 | 0.01 | 0.01 | 93 | 1042.5 |
| 20260506165041 | 57 | 348 | 2.0 | 3.0 | 0.00 | 0.01 | 0.01 | 93 | 1042.5 |
| 20260506164941 | 57 | 325 | 2.0 | 4.0 | 0.00 | 0.01 | 0.01 | 93 | 1042.4 |
| 20260506164023 | 58 | 345 | 3.0 | 7.0 | 0.00 | 0.01 | 0.01 | 93 | 1042.2 |
| 20260506163923 | 58 | 358 | 2.0 | 3.0 | 0.00 | 0.01 | 0.01 | 93 | 1042.2 |
| 20260506162023 | 59 | 355 | 3.0 | 4.0 | 0.01 | 0.01 | 0.01 | 92 | 1042.1 |
| 20260506161024 | 59 | 334 | 2.0 | 3.0 | 0.01 | 0.01 | 0.01 | 93 | 1041.4 |
| 20260506160025 | 60 | 348 | 4.0 | 6.0 | 0.01 | 0.01 | 0.01 | 93 | 1040.8 |
| 20260506155941 | 60 | 353 | 4.0 | 6.0 | 0.01 | 0.01 | 0.01 | 93 | 1040.7 |
| 20260506154922 | 61 | 345 | 2.0 | 3.0 | 0.01 | 0.01 | 0.01 | 93 | 1040.7 |
| 20260506153940 | 61 | 347 | 1.0 | 1.0 | 0.01 | 0.01 | 0.00 | 93 | 1040.7 |
| 20260506151923 | 61 | 30 | 2.0 | 4.0 | 0.00 | 0.00 | 0.00 | 91 | 1040.5 |
| 20260506150940 | 62 | 309 | 3.0 | 6.0 | 0.00 | 0.00 | 0.00 | 89 | 1040.1 |
| 20260506150024 | 62 | 34 | 4.0 | 6.0 | 0.00 | 0.00 | 0.00 | 88 | 1039.9 |
| 20260506145938 | 62 | 15 | 3.0 | 6.0 | 0.00 | 0.00 | 0.00 | 88 | 1039.9 |
| 20260506144123 | 62 | 11 | 2.0 | 3.0 | 0.00 | 0.00 | 0.00 | 87 | 1040.0 |
| 20260506143022 | 62 | 19 | 2.0 | 4.0 | 0.00 | 0.00 | 0.00 | 87 | 1039.8 |
| 20260506135023 | 63 | 301 | 1.0 | 2.0 | 0.00 | 0.00 | 0.00 | 87 | 1039.4 |
| 20260506134923 | 63 | 360 | 2.0 | 5.0 | 0.00 | 0.00 | 0.00 | 87 | 1039.4 |
| 20260506133922 | 63 | 315 | 0.0 | 1.0 | 0.00 | 0.00 | 0.00 | 88 | 1039.4 |
| 20260506131924 | 62 | 319 | 1.0 | 2.0 | 0.00 | 0.00 | 0.00 | 88 | 1039.2 |
| 20260506124939 | 63 | 67 | 0.0 | 0.0 | 0.00 | 0.00 | 0.00 | 89 | 1038.9 |
| 20260506123923 | 63 | 315 | 1.0 | 2.0 | 0.00 | 0.00 | 0.00 | 89 | 1038.6 |
| 20260506122923 | 63 | 315 | 1.0 | 2.0 | 0.00 | 0.00 | 0.00 | 89 | 1038.2 |
| 20260506122824 | 63 | 315 | 1.0 | 1.0 | 0.00 | 0.00 | 0.00 | 89 | 1038.3 |
| 20260506121824 | 63 | 342 | 1.0 | 3.0 | 0.00 | 0.00 | 0.00 | 89 | 1038.2 |
| 20260506114825 | 63 | 360 | 0.0 | 1.0 | 0.00 | 0.00 | 0.00 | 89 | 1037.3 |
| 20260506113824 | 63 | 360 | 0.0 | 0.0 | 0.00 | 0.00 | 0.00 | 89 | 1037.2 |
| 20260506112824 | 63 | 360 | 0.0 | 0.0 | 0.00 | 0.00 | 0.00 | 89 | 1036.9 |
| 20260506110839 | 63 | 360 | 0.0 | 0.0 | 0.00 | 0.00 | 0.00 | 89 | 1036.9 |
| 20260506105823 | 63 | 360 | 0.0 | 0.0 | 0.00 | 0.00 | 0.00 | 89 | 1036.8 |
| 20260506104840 | 63 | 360 | 0.0 | 0.0 | 0.00 | 0.00 | 0.00 | 89 | 1036.6 |
| 20260506103925 | 64 | 292 | 0.0 | 0.0 | 0.00 | 0.00 | 0.00 | 89 | 1036.8 |
| 20260506102924 | 64 | 292 | 0.0 | 0.0 | 0.00 | 0.00 | 0.00 | 89 | 1036.8 |
| 20260506101923 | 64 | 270 | 0.0 | 0.0 | 0.00 | 0.00 | 0.00 | 89 | 1036.6 |
| 20260506100939 | 64 | 292 | 0.0 | 0.0 | 0.00 | 0.00 | 0.00 | 89 | 1036.3 |
| 20260506100036 | 64 | 315 | 0.0 | 0.0 | 0.00 | 0.00 | 0.00 | 89 | 1036.2 |
| 20260506095024 | 65 | 315 | 0.0 | 0.0 | 0.00 | 0.00 | 0.00 | 89 | 1036.1 |
| 20260506094025 | 65 | 292 | 0.0 | 1.0 | 0.00 | 0.00 | 0.00 | 89 | 1036.2 |
| 20260506093122 | 66 | 315 | 0.0 | 1.0 | 0.00 | 0.00 | 0.00 | 88 | 1035.9 |
| 20260506092141 | 67 | 90 | 0.0 | 1.0 | 0.00 | 0.00 | 0.00 | 87 | 1035.6 |
| 20260506091238 | 69 | 22 | 1.0 | 2.0 | 0.00 | 0.00 | 0.00 | 86 | 1035.5 |
| 20260506090324 | 70 | 337 | 0.0 | 1.0 | 0.00 | 0.00 | 0.00 | 84 | 1035.3 |
| 20260506085339 | 73 | 143 | 0.0 | 2.0 | 0.00 | 0.00 | 0.00 | 85 | 1035.4 |
| 20260506084422 | 75 | 4 | 3.0 | 7.0 | 0.00 | 0.00 | 0.00 | 88 | 1035.0 |
| 20260506084322 | 75 | 319 | 3.0 | 4.0 | 0.00 | 0.00 | 0.00 | 88 | 1035.1 |
| 20260506084238 | 75 | 233 | 0.0 | 2.0 | 0.00 | 0.00 | 0.00 | 88 | 1035.0 |
| 20260506083223 | 75 | 202 | 2.0 | 3.0 | 0.00 | 0.00 | 0.00 | 88 | 1034.8 |
| 20260506081323 | 75 | 184 | 2.0 | 3.0 | 0.00 | 0.00 | 0.00 | 90 | 1034.6 |
| 20260506080324 | 75 | 202 | 2.0 | 3.0 | 0.00 | 0.00 | 0.00 | 89 | 1034.4 |
| 20260506071423 | 75 | 225 | 2.0 | 3.0 | 0.00 | 0.00 | 0.00 | 90 | 1034.4 |
| 20260506070425 | 75 | 202 | 1.0 | 2.0 | 0.00 | 0.00 | 0.00 | 89 | 1034.2 |
| 20260506062322 | 75 | 225 | 1.0 | 2.0 | 0.00 | 0.00 | 0.00 | 89 | 1034.7 |
| 20260506062224 | 75 | 220 | 1.0 | 3.0 | 0.00 | 0.00 | 0.00 | 90 | 1034.6 |
| 20260506061241 | 75 | 215 | 2.0 | 3.0 | 0.00 | 0.00 | 0.00 | 89 | 1034.8 |
| 20260506060323 | 75 | 203 | 2.0 | 3.0 | 0.00 | 0.00 | 0.00 | 90 | 1034.5 |
| 20260506050123 | 75 | 202 | 1.0 | 2.0 | 0.00 | 0.00 | 0.00 | 88 | 1034.6 |
| 20260506045035 | 75 | 202 | 1.0 | 2.0 | 0.00 | 0.00 | 0.00 | 87 | 1034.7 |
| 20260506044034 | 76 | 202 | 1.0 | 3.0 | 0.00 | 0.00 | 0.00 | 87 | 1034.7 |
| 20260506042136 | 76 | 180 | 1.0 | 3.0 | 0.00 | 0.00 | 0.00 | 85 | 1034.2 |
| 20260506042038 | 76 | 180 | 2.0 | 3.0 | 0.00 | 0.00 | 0.00 | 85 | 1034.3 |
| 20260506041137 | 76 | 180 | 0.0 | 1.0 | 0.00 | 0.00 | 0.00 | 85 | 1034.5 |
| 20260506040236 | 76 | 202 | 1.0 | 1.0 | 0.00 | 0.00 | 0.00 | 84 | 1034.2 |
| 20260506035238 | 77 | 202 | 2.0 | 3.0 | 0.00 | 0.00 | 0.00 | 84 | 1033.6 |
| 20260506034237 | 77 | 195 | 1.0 | 2.0 | 0.00 | 0.00 | 0.00 | 83 | 1033.7 |
| 20260506033237 | 77 | 202 | 2.0 | 4.0 | 0.00 | 0.00 | 0.00 | 83 | 1033.7 |
| 20260506032336 | 77 | 180 | 0.0 | 2.0 | 0.00 | 0.00 | 0.00 | 83 | 1033.6 |
| 20260506032238 | 77 | 180 | 2.0 | 3.0 | 0.00 | 0.00 | 0.00 | 82 | 1033.7 |
| 20260506031237 | 77 | 202 | 1.0 | 2.0 | 0.00 | 0.00 | 0.00 | 83 | 1033.7 |
| 20260506031135 | 77 | 202 | 1.0 | 2.0 | 0.00 | 0.00 | 0.00 | 83 | 1033.6 |
| 20260506030137 | 77 | 202 | 1.0 | 2.0 | 0.00 | 0.00 | 0.00 | 83 | 1033.6 |
| 20260506030040 | 77 | 202 | 2.0 | 3.0 | 0.00 | 0.00 | 0.00 | 82 | 1033.6 |
| 20260506025053 | 77 | 195 | 2.0 | 2.0 | 0.00 | 0.00 | 0.00 | 83 | 1033.3 |
| 20260506024135 | 77 | 180 | 1.0 | 2.0 | 0.00 | 0.00 | 0.00 | 82 | 1032.9 |
| 20260506023137 | 77 | 202 | 2.0 | 4.0 | 0.00 | 0.00 | 0.00 | 82 | 1032.6 |
| 20260506023051 | 77 | 183 | 2.0 | 3.0 | 0.00 | 0.00 | 0.00 | 82 | 1032.7 |
| 20260506021938 | 77 | 180 | 1.0 | 2.0 | 0.00 | 0.00 | 0.00 | 82 | 1033.1 |
| 20260506021851 | 77 | 180 | 1.0 | 1.0 | 0.00 | 0.00 | 0.00 | 82 | 1033.1 |
| 20260506020835 | 77 | 202 | 0.0 | 0.0 | 0.00 | 0.00 | 0.00 | 81 | 1033.3 |
| 20260506015935 | 78 | 202 | 0.0 | 0.0 | 0.00 | 0.00 | 0.00 | 81 | 1033.0 |
| 20260506014953 | 78 | 202 | 0.0 | 0.0 | 0.00 | 0.00 | 0.00 | 79 | 1033.2 |
| 20260506014051 | 79 | 202 | 0.0 | 0.0 | 0.00 | 0.00 | 0.00 | 78 | 1033.0 |
| 20260506013037 | 79 | 202 | 0.0 | 0.0 | 0.00 | 0.00 | 0.00 | 78 | 1032.7 |
| 20260506012135 | 79 | 202 | 0.0 | 1.0 | 0.00 | 0.00 | 0.00 | 76 | 1032.8 |
| 20260506012038 | 79 | 202 | 1.0 | 1.0 | 0.00 | 0.00 | 0.00 | 77 | 1032.7 |
| 20260506011136 | 79 | 202 | 0.0 | 0.0 | 0.00 | 0.00 | 0.00 | 77 | 1032.8 |
| 20260506010235 | 79 | 202 | 0.0 | 0.0 | 0.00 | 0.00 | 0.00 | 75 | 1032.5 |
| 20260506005251 | 80 | 202 | 0.0 | 0.0 | 0.00 | 0.00 | 0.00 | 75 | 1032.3 |
| 20260506005139 | 80 | 202 | 0.0 | 0.0 | 0.00 | 0.00 | 0.00 | 75 | 1032.3 |
| 20260506004235 | 80 | 202 | 0.0 | 0.0 | 0.00 | 0.00 | 0.00 | 73 | 1032.1 |
| 20260506003252 | 81 | 202 | 0.0 | 0.0 | 0.00 | 0.00 | 0.00 | 73 | 1032.0 |
| 20260506002337 | 81 | 185 | 0.0 | 1.0 | 0.00 | 0.00 | 0.00 | 72 | 1032.0 |
| 20260506001436 | 81 | 194 | 1.0 | 2.0 | 0.00 | 0.00 | 0.00 | 71 | 1032.1 |
| 20260506000451 | 82 | 216 | 2.0 | 3.0 | 0.00 | 0.00 | 0.00 | 71 | 1031.9 |
| 20260505235535 | 82 | 191 | 2.0 | 2.0 | 0.00 | 0.00 | 0.00 | 70 | 1031.7 |
| 20260505234539 | 82 | 186 | 2.0 | 4.0 | 0.00 | 0.00 | 0.00 | 71 | 1031.8 |
| 20260505233538 | 82 | 202 | 1.0 | 2.0 | 0.00 | 0.00 | 0.00 | 71 | 1031.8 |
| 20260505232635 | 82 | 202 | 2.0 | 3.0 | 0.00 | 0.00 | 0.00 | 71 | 1031.9 |
| 20260505231637 | 82 | 202 | 1.0 | 2.0 | 0.00 | 0.00 | 0.00 | 70 | 1032.0 |
| 20260505230638 | 82 | 203 | 2.0 | 4.0 | 0.00 | 0.00 | 0.00 | 68 | 1031.9 |
| 20260505225736 | 83 | 202 | 2.0 | 3.0 | 0.00 | 0.00 | 0.00 | 69 | 1031.9 |
| 20260505224750 | 83 | 224 | 2.0 | 3.0 | 0.00 | 0.00 | 0.00 | 68 | 1032.0 |
| 20260505223836 | 83 | 220 | 1.0 | 2.0 | 0.00 | 0.00 | 0.00 | 67 | 1031.9 |
| 20260505222853 | 82 | 238 | 2.0 | 4.0 | 0.00 | 0.00 | 0.00 | 68 | 1031.7 |
| 20260505221937 | 82 | 202 | 3.0 | 4.0 | 0.00 | 0.00 | 0.00 | 68 | 1031.7 |
| 20260505220936 | 83 | 225 | 2.0 | 3.0 | 0.00 | 0.00 | 0.00 | 68 | 1031.8 |
| 20260505214936 | 82 | 199 | 3.0 | 5.0 | 0.00 | 0.00 | 0.00 | 68 | 1031.7 |
| 20260505213937 | 82 | 201 | 2.0 | 5.0 | 0.00 | 0.00 | 0.00 | 69 | 1031.9 |
| 20260505213035 | 82 | 202 | 1.0 | 3.0 | 0.00 | 0.00 | 0.00 | 69 | 1032.1 |
| 20260505212935 | 82 | 202 | 3.0 | 4.0 | 0.00 | 0.00 | 0.00 | 69 | 1032.1 |
| 20260505211935 | 82 | 201 | 2.0 | 4.0 | 0.00 | 0.00 | 0.00 | 69 | 1032.3 |
| 20260505211837 | 82 | 198 | 3.0 | 4.0 | 0.00 | 0.00 | 0.00 | 69 | 1032.3 |
| 20260505210835 | 82 | 187 | 4.0 | 6.0 | 0.00 | 0.00 | 0.00 | 69 | 1032.2 |
| 20260505210737 | 82 | 190 | 5.0 | 8.0 | 0.00 | 0.00 | 0.00 | 69 | 1032.3 |
| 20260505205836 | 82 | 198 | 2.0 | 4.0 | 0.00 | 0.00 | 0.00 | 68 | 1032.2 |
| 20260505203854 | 82 | 222 | 2.0 | 4.0 | 0.00 | 0.00 | 0.00 | 69 | 1032.3 |
| 20260505201937 | 81 | 206 | 3.0 | 4.0 | 0.00 | 0.00 | 0.00 | 69 | 1032.6 |
| 20260505201036 | 81 | 225 | 2.0 | 2.0 | 0.00 | 0.00 | 0.00 | 69 | 1032.7 |
| 20260505200052 | 81 | 225 | 2.0 | 4.0 | 0.00 | 0.00 | 0.00 | 68 | 1032.8 |
| 20260505195040 | 82 | 198 | 4.0 | 9.0 | 0.00 | 0.00 | 0.00 | 68 | 1032.8 |
| 20260505193935 | 82 | 197 | 3.0 | 6.0 | 0.00 | 0.00 | 0.00 | 68 | 1032.5 |
| 20260505192938 | 81 | 213 | 3.0 | 5.0 | 0.00 | 0.00 | 0.00 | 70 | 1032.3 |
| 20260505191936 | 80 | 231 | 4.0 | 7.0 | 0.00 | 0.00 | 0.00 | 71 | 1032.0 |
| 20260505190938 | 81 | 202 | 6.0 | 9.0 | 0.00 | 0.00 | 0.00 | 71 | 1031.9 |
| 20260505184937 | 80 | 195 | 3.0 | 6.0 | 0.00 | 0.00 | 0.00 | 73 | 1032.6 |
| 20260505184838 | 80 | 168 | 4.0 | 7.0 | 0.00 | 0.00 | 0.00 | 73 | 1032.5 |
| 20260505183935 | 79 | 200 | 3.0 | 5.0 | 0.00 | 0.00 | 0.00 | 75 | 1033.1 |
| 20260505182938 | 77 | 213 | 2.0 | 3.0 | 0.00 | 0.00 | 0.00 | 75 | 1033.6 |
| 20260505181938 | 77 | 202 | 2.0 | 3.0 | 0.00 | 0.00 | 0.00 | 77 | 1033.9 |